Time;durP1;ratioP1;P1;durP2;ratioP2;P2;SDS_P1;SDS_P2;PMS_P1;PMS_P2;Temp;Humidity;BMP_temperature;BMP_pressure;BME280_temperature;BME280_humidity;BME280_pressure;Samples;Min_cycle;Max_cycle;Signal;HPM_P1;HPM_P2
2021/05/19 00:01:44;;;;;;;3.97;1.15;;;;;;;10.37;69.49;96088.41;5013724;28;20050;-69
2021/05/19 00:04:11;;;;;;;2.45;1.10;;;;;;;10.40;69.75;96085.06;5007812;28;20045;-69
2021/05/19 00:06:37;;;;;;;2.05;1.45;;;;;;;10.42;69.96;96090.19;5014224;28;20046;-69
2021/05/19 00:09:05;;;;;;;2.20;1.20;;;;;;;10.45;70.55;96097.72;5005296;28;20053;-69
2021/05/19 00:11:31;;;;;;;2.10;1.00;;;;;;;10.46;70.05;96077.53;5013530;28;20050;-67
2021/05/19 00:13:58;;;;;;;1.45;1.00;;;;;;;10.46;69.67;96091.13;5011825;28;20050;-69
2021/05/19 00:16:24;;;;;;;4.18;1.00;;;;;;;10.44;69.91;96087.94;5013024;28;20050;-66
2021/05/19 00:18:51;;;;;;;1.88;1.05;;;;;;;10.43;69.81;96080.88;5013049;28;20084;-69
2021/05/19 00:21:17;;;;;;;1.95;0.90;;;;;;;10.47;69.66;96086.47;5012884;28;20061;-69
2021/05/19 00:23:43;;;;;;;1.80;0.95;;;;;;;10.46;69.85;96091.13;5013287;28;20038;-69
2021/05/19 00:26:09;;;;;;;1.85;1.17;;;;;;;10.48;70.16;96083.44;5012201;28;20696;-67
2021/05/19 00:28:35;;;;;;;2.28;1.10;;;;;;;10.51;69.87;96090.97;5013573;28;20042;-67
2021/05/19 00:31:05;;;;;;;2.85;1.20;;;;;;;10.52;69.68;96095.28;5012028;28;20037;-67
2021/05/19 00:33:31;;;;;;;1.70;0.90;;;;;;;10.52;68.86;96089.84;5013479;28;20124;-69
2021/05/19 00:35:57;;;;;;;1.50;0.90;;;;;;;10.51;68.81;96099.13;5012473;28;20046;-66
2021/05/19 00:38:24;;;;;;;2.20;1.00;;;;;;;10.49;69.00;96106.81;5012801;28;20052;-69
2021/05/19 00:40:50;;;;;;;1.60;0.95;;;;;;;10.49;69.48;96101.34;5012047;28;20049;-67
2021/05/19 00:43:16;;;;;;;1.92;0.77;;;;;;;10.49;69.49;96104.09;5012596;28;20065;-69
2021/05/19 00:45:42;;;;;;;1.20;0.90;;;;;;;10.52;69.25;96103.44;5012682;28;20053;-69
2021/05/19 00:48:11;;;;;;;2.38;1.02;;;;;;;10.48;69.66;96099.75;5012232;28;20052;-69
2021/05/19 00:50:39;;;;;;;2.55;0.90;;;;;;;10.43;69.76;96097.22;5012941;28;20453;-69
2021/05/19 00:53:05;;;;;;;1.50;0.90;;;;;;;10.40;70.09;96095.16;5011711;28;20046;-68
2021/05/19 00:55:32;;;;;;;2.03;1.10;;;;;;;10.40;69.87;96097.88;5012981;28;20048;-69
2021/05/19 00:57:58;;;;;;;1.00;0.80;;;;;;;10.34;69.73;96091.00;5011719;28;20421;-69
2021/05/19 01:00:25;;;;;;;1.00;0.80;;;;;;;10.23;69.32;96089.69;5012494;28;20042;-69
2021/05/19 01:02:52;;;;;;;5.20;1.10;;;;;;;10.08;69.62;96089.06;5011880;28;20088;-69
2021/05/19 01:05:23;;;;;;;2.63;0.80;;;;;;;9.97;69.80;96082.38;5012259;28;20042;-69
2021/05/19 01:10:33;;;;;;;1.00;0.70;;;;;;;9.99;70.41;96088.28;4993720;28;20057;-68
2021/05/19 01:12:59;;;;;;;1.38;0.73;;;;;;;10.01;70.23;96091.47;5012353;28;20054;-69
2021/05/19 01:15:25;;;;;;;3.40;0.65;;;;;;;9.92;70.15;96096.13;5010922;28;20693;-68
2021/05/19 01:17:51;;;;;;;1.63;0.60;;;;;;;9.84;70.45;96097.69;5012665;28;20042;-68
2021/05/19 01:20:17;;;;;;;1.42;0.80;;;;;;;9.81;71.55;96098.31;5010946;28;20081;-69
2021/05/19 01:22:46;;;;;;;1.10;0.70;;;;;;;9.69;72.64;96106.31;5012580;28;20046;-69
2021/05/19 01:25:12;;;;;;;1.58;0.77;;;;;;;9.52;73.99;96109.03;5010712;28;20449;-69
2021/05/19 01:27:38;;;;;;;2.53;0.90;;;;;;;9.45;74.71;96108.66;5012175;28;20528;-69
2021/05/19 01:30:07;;;;;;;4.75;0.90;;;;;;;9.38;75.39;96112.66;5011207;28;20065;-68
2021/05/19 01:32:34;;;;;;;2.92;1.13;;;;;;;9.32;76.20;96107.69;5011576;28;20037;-68
2021/05/19 01:35:00;;;;;;;1.67;0.93;;;;;;;9.29;76.34;96113.75;5011935;28;20128;-68
2021/05/19 01:37:26;;;;;;;3.60;1.10;;;;;;;9.22;76.80;96108.78;5011006;28;20065;-68
2021/05/19 01:39:53;;;;;;;1.20;0.90;;;;;;;9.19;76.89;96105.88;5005357;28;20042;-65
2021/05/19 01:42:19;;;;;;;2.25;0.80;;;;;;;9.14;76.83;96106.84;5010555;28;20125;-68
2021/05/19 01:44:46;;;;;;;1.80;1.10;;;;;;;9.21;76.64;96111.81;5012186;28;20042;-68
2021/05/19 01:47:12;;;;;;;2.50;1.02;;;;;;;9.23;76.87;96104.94;5010692;28;20042;-68
2021/05/19 01:49:40;;;;;;;2.15;0.80;;;;;;;9.25;76.29;96107.38;5011910;28;20095;-68
2021/05/19 01:52:08;;;;;;;1.88;0.90;;;;;;;9.26;76.35;96108.97;5010817;28;20576;-68
2021/05/19 01:54:37;;;;;;;1.73;0.90;;;;;;;9.28;76.04;96109.44;5011396;28;20046;-66
2021/05/19 01:57:06;;;;;;;1.67;0.80;;;;;;;9.28;75.52;96112.16;5011046;28;20046;-68
2021/05/19 01:59:33;;;;;;;2.70;1.00;;;;;;;9.30;75.63;96116.16;5010860;28;20034;-68
2021/05/19 02:01:59;;;;;;;2.42;0.90;;;;;;;9.31;75.78;96122.41;5011758;28;20404;-68
2021/05/19 02:04:25;;;;;;;1.52;0.90;;;;;;;9.38;75.57;96122.72;5010498;28;20116;-68
2021/05/19 02:06:55;;;;;;;1.50;0.90;;;;;;;9.37;76.07;96118.41;5012022;28;20042;-68
2021/05/19 02:09:22;;;;;;;2.63;0.98;;;;;;;9.45;75.76;96124.97;5003520;28;20137;-68
2021/05/19 02:11:48;;;;;;;1.83;1.05;;;;;;;9.49;75.45;96118.59;5011620;28;20046;-67
2021/05/19 02:14:17;;;;;;;1.88;0.80;;;;;;;9.56;75.12;96127.09;5010361;28;20048;-67
2021/05/19 02:16:43;;;;;;;2.30;0.95;;;;;;;9.55;74.46;96128.22;5011213;28;20068;-68
2021/05/19 02:19:10;;;;;;;1.80;0.90;;;;;;;9.60;74.39;96125.34;5010640;28;20077;-68
2021/05/19 02:21:39;;;;;;;2.33;1.02;;;;;;;9.63;74.27;96127.44;5011004;28;20128;-68
2021/05/19 02:24:06;;;;;;;1.80;1.00;;;;;;;9.68;73.77;96126.47;5010675;28;20528;-67
2021/05/19 02:26:32;;;;;;;1.13;0.85;;;;;;;9.71;73.24;96125.84;5010381;28;20077;-67
2021/05/19 02:28:58;;;;;;;2.25;1.08;;;;;;;9.78;73.16;96128.09;5011249;28;20092;-67
2021/05/19 02:31:25;;;;;;;1.42;0.90;;;;;;;9.82;73.15;96134.50;5009925;28;20056;-67
2021/05/19 02:33:51;;;;;;;1.98;1.10;;;;;;;9.86;72.69;96128.09;5011222;28;20037;-68
2021/05/19 02:36:17;;;;;;;1.77;1.10;;;;;;;9.88;72.66;96125.06;5009975;28;20084;-68
2021/05/19 02:38:43;;;;;;;3.65;0.90;;;;;;;9.90;72.96;96128.25;5007167;28;20042;-67
2021/05/19 02:41:09;;;;;;;1.88;1.05;;;;;;;9.92;72.85;96132.28;5006195;28;20073;-68
2021/05/19 02:43:35;;;;;;;1.77;1.10;;;;;;;9.90;72.50;96130.97;5010568;28;20069;-68
2021/05/19 02:46:01;;;;;;;1.30;1.02;;;;;;;9.92;72.85;96131.47;5010351;28;20451;-68
2021/05/19 02:48:28;;;;;;;1.65;0.95;;;;;;;9.94;72.49;96126.50;5010461;28;20124;-67
2021/05/19 02:50:54;;;;;;;2.92;1.02;;;;;;;9.94;72.53;96129.22;5011095;28;20045;-68
2021/05/19 02:53:20;;;;;;;3.50;1.17;;;;;;;9.92;72.69;96126.03;5009442;28;20042;-68
2021/05/19 02:55:46;;;;;;;2.45;1.00;;;;;;;9.86;72.48;96121.84;5011151;28;20049;-67
2021/05/19 02:58:12;;;;;;;1.52;0.98;;;;;;;9.86;72.06;96122.66;5009359;28;20136;-67
2021/05/19 03:00:38;;;;;;;1.75;1.20;;;;;;;9.85;72.37;96122.97;5010906;28;20049;-67
2021/05/19 03:03:05;;;;;;;2.90;1.23;;;;;;;9.83;72.20;96122.50;5009871;28;20502;-68
2021/05/19 03:05:31;;;;;;;5.25;1.40;;;;;;;9.78;72.52;96123.47;5010736;28;20092;-68
2021/05/19 03:07:58;;;;;;;2.22;1.13;;;;;;;9.74;72.72;96125.22;5010307;28;20046;-68
2021/05/19 03:10:24;;;;;;;2.15;1.05;;;;;;;9.68;72.60;96121.84;5003201;28;20053;-67
2021/05/19 03:12:51;;;;;;;2.25;1.40;;;;;;;9.68;72.26;96127.28;5010501;28;20046;-68
2021/05/19 03:15:18;;;;;;;3.65;1.15;;;;;;;9.64;72.39;96129.03;5009601;28;20731;-67
2021/05/19 03:17:44;;;;;;;1.70;1.02;;;;;;;9.54;72.73;96126.59;5011017;28;20045;-68
2021/05/19 03:20:11;;;;;;;3.33;1.27;;;;;;;9.57;72.92;96131.41;5009592;28;20060;-68
2021/05/19 03:22:40;;;;;;;5.97;1.20;;;;;;;9.60;73.12;96130.75;5011024;28;20049;-68
2021/05/19 03:25:07;;;;;;;2.70;1.15;;;;;;;9.62;72.91;96136.72;5009335;28;20045;-68
2021/05/19 03:27:34;;;;;;;3.08;1.02;;;;;;;9.64;72.84;96136.38;5010538;28;20050;-68
2021/05/19 03:30:00;;;;;;;2.05;1.20;;;;;;;9.56;72.58;96135.25;5010229;28;20049;-68
2021/05/19 03:32:26;;;;;;;1.73;1.13;;;;;;;9.59;72.85;96139.25;5009589;28;20053;-67
2021/05/19 03:34:52;;;;;;;2.20;1.33;;;;;;;9.55;72.71;96138.28;5010194;28;20050;-67
2021/05/19 03:37:18;;;;;;;2.80;1.20;;;;;;;9.53;73.22;96144.03;5009309;28;20081;-68
2021/05/19 03:39:45;;;;;;;3.97;1.38;;;;;;;9.49;73.44;96140.34;5003796;28;20038;-67
2021/05/19 03:42:11;;;;;;;4.35;1.30;;;;;;;9.41;73.18;96144.66;5009075;28;20099;-68
2021/05/19 03:44:37;;;;;;;2.70;1.40;;;;;;;9.40;73.04;96155.84;5010933;28;20511;-67
2021/05/19 03:47:03;;;;;;;3.20;1.73;;;;;;;9.35;73.47;96159.50;5009185;28;20045;-67
2021/05/19 03:49:33;;;;;;;5.55;1.90;;;;;;;9.33;73.47;96153.56;5012752;28;20046;-68
2021/05/19 03:51:59;;;;;;;3.45;1.40;;;;;;;9.29;73.92;96157.22;5013563;28;20125;-68
2021/05/19 03:54:25;;;;;;;2.78;1.60;;;;;;;9.28;74.00;96164.56;5013211;28;20580;-68
2021/05/19 03:56:52;;;;;;;3.42;1.50;;;;;;;9.30;73.91;96158.84;5013533;28;20065;-68
2021/05/19 03:59:18;;;;;;;2.95;1.63;;;;;;;9.37;74.14;96170.06;5012684;28;20037;-68
2021/05/19 04:01:44;;;;;;;4.32;1.73;;;;;;;9.43;74.17;96165.28;5013862;28;20045;-68
2021/05/19 04:04:11;;;;;;;7.10;1.98;;;;;;;9.36;74.24;96168.44;5012411;28;20046;-68
2021/05/19 04:06:37;;;;;;;4.88;1.52;;;;;;;9.40;74.23;96169.44;5014191;28;20057;-68
2021/05/19 04:09:06;;;;;;;4.18;1.90;;;;;;;9.44;74.22;96170.38;5010437;28;20042;-68
2021/05/19 04:11:32;;;;;;;3.75;2.28;;;;;;;9.42;74.09;96175.34;5014090;28;20042;-68
2021/05/19 04:13:59;;;;;;;6.20;2.15;;;;;;;9.28;74.23;96172.72;5012505;28;20509;-68
2021/05/19 04:16:25;;;;;;;4.15;2.53;;;;;;;9.26;74.63;96179.59;5013226;28;20050;-68
2021/05/19 04:18:51;;;;;;;4.25;2.53;;;;;;;9.21;75.46;96171.59;5012795;28;20448;-68
2021/05/19 04:21:17;;;;;;;3.92;2.55;;;;;;;9.15;76.23;96177.16;5012818;28;20038;-68
2021/05/19 04:23:43;;;;;;;4.45;2.25;;;;;;;9.20;75.65;96175.44;5012938;28;20076;-68
2021/05/19 04:26:09;;;;;;;2.58;1.83;;;;;;;9.00;76.81;96185.72;5012494;28;20057;-67
2021/05/19 04:28:35;;;;;;;6.75;2.60;;;;;;;8.81;77.74;96180.47;5013639;28;20045;-68
2021/05/19 04:31:02;;;;;;;5.65;2.80;;;;;;;8.67;78.86;96189.84;5011952;28;20046;-68
2021/05/19 04:33:28;;;;;;;4.82;3.05;;;;;;;8.59;80.00;96196.78;5013248;28;20057;-67
2021/05/19 04:35:54;;;;;;;5.38;3.25;;;;;;;8.52;80.93;96191.81;5012408;28;20125;-67
2021/05/19 04:38:20;;;;;;;4.90;3.00;;;;;;;8.29;81.69;96195.56;5012769;28;20133;-67
2021/05/19 04:40:46;;;;;;;5.38;3.25;;;;;;;8.28;82.27;96204.81;5011729;28;20129;-67
2021/05/19 04:43:13;;;;;;;6.38;3.60;;;;;;;8.26;82.75;96204.34;5012613;28;20052;-67
2021/05/19 04:45:39;;;;;;;11.00;3.55;;;;;;;8.31;83.00;96204.22;5012624;28;20046;-67
2021/05/19 04:48:07;;;;;;;7.30;3.88;;;;;;;8.31;83.33;96209.66;5012208;28;20052;-67
2021/05/19 04:50:33;;;;;;;8.38;4.38;;;;;;;8.35;83.46;96205.19;5012835;28;20049;-67
2021/05/19 04:52:59;;;;;;;6.65;3.70;;;;;;;8.38;84.00;96207.34;5011986;28;20119;-67
2021/05/19 04:55:25;;;;;;;5.43;3.28;;;;;;;8.39;83.83;96206.22;5012450;28;20492;-67
2021/05/19 04:57:51;;;;;;;6.85;3.58;;;;;;;8.38;83.98;96203.81;5011902;28;20117;-67
2021/05/19 05:00:18;;;;;;;7.95;3.40;;;;;;;8.38;84.06;96204.63;5012110;28;20489;-67
2021/05/19 05:02:44;;;;;;;5.38;3.55;;;;;;;8.34;83.99;96200.88;5011730;28;20046;-66
2021/05/19 05:05:12;;;;;;;7.03;4.20;;;;;;;8.33;83.85;96202.00;5012496;28;20075;-67
2021/05/19 05:07:38;;;;;;;7.15;3.83;;;;;;;8.32;84.07;96205.81;5011878;28;20046;-67
2021/05/19 05:10:06;;;;;;;6.10;3.75;;;;;;;8.40;83.78;96212.44;5011292;28;20053;-67
2021/05/19 05:12:32;;;;;;;7.57;3.92;;;;;;;8.45;83.86;96212.31;5012005;28;20512;-67
2021/05/19 05:14:58;;;;;;;7.72;4.55;;;;;;;8.43;83.66;96217.28;5011517;28;20440;-66
2021/05/19 05:17:24;;;;;;;6.70;4.65;;;;;;;8.49;83.97;96216.84;5011835;28;20069;-67
2021/05/19 05:19:50;;;;;;;6.70;4.63;;;;;;;8.52;83.35;96210.81;5011600;28;20112;-66
2021/05/19 05:22:17;;;;;;;6.53;4.72;;;;;;;8.59;83.81;96210.38;5012263;28;20048;-67
2021/05/19 05:24:43;;;;;;;7.38;5.22;;;;;;;8.61;83.79;96219.81;5011347;28;20049;-66
2021/05/19 05:27:09;;;;;;;8.98;4.70;;;;;;;8.68;84.00;96218.56;5012054;28;20046;-67
2021/05/19 05:29:35;;;;;;;7.70;4.72;;;;;;;8.69;83.79;96214.75;5011515;28;20061;-67
2021/05/19 05:32:01;;;;;;;5.78;4.45;;;;;;;8.72;83.78;96219.53;5011860;28;20132;-69
2021/05/19 05:34:27;;;;;;;6.25;4.85;;;;;;;8.71;83.81;96224.16;5011203;28;20046;-73
2021/05/19 05:36:54;;;;;;;7.78;5.15;;;;;;;8.72;83.69;96227.69;5009243;28;20050;-73
2021/05/19 05:39:21;;;;;;;6.55;4.65;;;;;;;8.72;83.78;96227.69;5008780;28;20042;-71
2021/05/19 05:41:47;;;;;;;7.95;4.90;;;;;;;8.71;83.85;96228.81;5009045;28;20728;-71
2021/05/19 05:44:13;;;;;;;8.32;5.68;;;;;;;8.70;84.15;96229.91;5009026;28;20765;-71
2021/05/19 05:46:39;;;;;;;7.10;5.10;;;;;;;8.66;83.93;96227.00;5008607;28;20133;-70
2021/05/19 05:49:06;;;;;;;8.60;5.00;;;;;;;8.63;83.98;96228.44;5009057;28;20400;-70
2021/05/19 05:51:32;;;;;;;7.88;4.75;;;;;;;8.71;83.79;96228.81;5008714;28;20129;-70
2021/05/19 05:53:58;;;;;;;7.10;4.10;;;;;;;8.78;83.50;96232.72;5009125;28;20129;-70
2021/05/19 05:56:25;;;;;;;7.30;5.13;;;;;;;8.81;83.45;96233.97;5008065;28;20056;-70
2021/05/19 05:58:51;;;;;;;7.70;4.82;;;;;;;8.83;83.55;96232.59;5012131;28;20045;-69
2021/05/19 06:01:17;;;;;;;6.90;4.28;;;;;;;8.86;82.76;96236.56;5027329;28;20041;-70
2021/05/19 06:03:43;;;;;;;9.27;4.75;;;;;;;8.87;83.38;96238.19;5026543;28;20531;-70
2021/05/19 06:06:10;;;;;;;7.88;5.00;;;;;;;8.93;82.98;96236.97;5027371;28;20104;-70
2021/05/19 06:08:36;;;;;;;9.13;5.20;;;;;;;9.00;83.56;96236.50;5027641;28;20068;-70
2021/05/19 06:11:04;;;;;;;7.53;4.82;;;;;;;9.08;82.88;96246.63;5008838;28;20042;-70
2021/05/19 06:13:31;;;;;;;10.82;5.75;;;;;;;9.03;83.09;96247.56;5007355;28;20053;-70
2021/05/19 06:15:58;;;;;;;9.52;6.00;;;;;;;9.10;83.22;96247.91;5009017;28;20113;-70
2021/05/19 06:18:24;;;;;;;10.55;6.50;;;;;;;9.18;83.56;96251.00;5007882;28;20186;-70
2021/05/19 06:20:51;;;;;;;10.82;7.10;;;;;;;9.21;82.67;96253.91;5008906;28;20132;-70
2021/05/19 06:23:17;;;;;;;10.70;7.03;;;;;;;9.26;82.61;96250.25;5007779;28;20054;-70
2021/05/19 06:25:43;;;;;;;11.55;7.35;;;;;;;9.33;82.56;96250.59;5008365;28;20564;-69
2021/05/19 06:28:09;;;;;;;11.30;7.47;;;;;;;9.33;82.69;96250.59;5008038;28;20099;-70
2021/05/19 06:30:36;;;;;;;11.52;8.32;;;;;;;9.34;82.95;96241.31;5008433;28;20073;-70
2021/05/19 06:33:02;;;;;;;12.13;8.93;;;;;;;9.41;83.29;96245.22;5008318;28;20061;-70
2021/05/19 06:35:28;;;;;;;12.70;8.30;;;;;;;9.53;82.97;96241.88;5009803;28;20038;-70
2021/05/19 06:37:54;;;;;;;12.88;8.65;;;;;;;9.58;83.24;96241.75;5011592;28;20052;-70
2021/05/19 06:40:20;;;;;;;12.18;8.57;;;;;;;9.55;80.91;96242.41;5009438;28;20103;-69
2021/05/19 06:42:46;;;;;;;11.52;8.05;;;;;;;9.50;80.73;96245.25;5011541;28;20041;-70
2021/05/19 06:45:14;;;;;;;11.32;8.80;;;;;;;9.55;81.85;96241.56;5010342;28;20042;-70
2021/05/19 06:47:41;;;;;;;14.50;9.40;;;;;;;9.68;82.05;96244.19;5011022;28;20618;-70
2021/05/19 06:50:08;;;;;;;14.40;9.25;;;;;;;9.79;81.75;96247.41;5010639;28;20128;-71
2021/05/19 06:52:34;;;;;;;11.82;8.48;;;;;;;9.85;80.79;96248.06;5010747;28;20551;-71
2021/05/19 06:55:01;;;;;;;12.68;8.48;;;;;;;9.85;80.45;96245.34;5010902;28;20509;-71
2021/05/19 06:57:27;;;;;;;10.45;8.63;;;;;;;9.77;79.86;96248.88;5010358;28;20053;-71
2021/05/19 06:59:53;;;;;;;12.95;9.07;;;;;;;9.77;79.95;96255.09;5011322;28;20042;-69
2021/05/19 07:02:19;;;;;;;14.82;9.45;;;;;;;9.86;80.83;96246.94;5009691;28;20072;-69
2021/05/19 07:04:46;;;;;;;12.52;9.75;;;;;;;9.90;80.67;96250.66;5025582;28;20132;-69
2021/05/19 07:07:11;;;;;;;13.90;9.23;;;;;;;9.96;80.62;96252.09;5029629;28;20060;-69
2021/05/19 07:09:38;;;;;;;12.20;8.88;;;;;;;10.00;79.46;96255.00;5030716;28;20041;-69
2021/05/19 07:12:04;;;;;;;10.63;8.20;;;;;;;9.94;78.50;96249.72;5029713;28;20057;-70
2021/05/19 07:14:32;;;;;;;15.35;8.68;;;;;;;10.05;78.54;96249.41;5030329;28;20042;-70
2021/05/19 07:16:58;;;;;;;10.50;8.07;;;;;;;10.13;77.10;96246.72;5030282;28;20052;-70
2021/05/19 07:19:25;;;;;;;12.05;8.75;;;;;;;10.17;77.34;96253.09;5029468;28;20065;-70
2021/05/19 07:21:52;;;;;;;10.88;8.48;;;;;;;10.23;77.96;96255.69;5030686;28;20060;-70
2021/05/19 07:24:18;;;;;;;9.73;7.50;;;;;;;10.28;75.98;96253.63;5031386;28;20605;-70
2021/05/19 07:26:46;;;;;;;11.63;8.90;;;;;;;10.19;76.49;96256.34;5035074;28;20041;-70
2021/05/19 07:29:13;;;;;;;10.75;8.27;;;;;;;10.18;75.68;96260.19;5033166;28;20050;-70
2021/05/19 07:31:40;;;;;;;12.80;8.70;;;;;;;10.16;76.41;96259.69;5034738;28;20056;-71
2021/05/19 07:34:06;;;;;;;17.58;10.45;;;;;;;10.23;76.55;96255.69;5033252;28;20048;-71
2021/05/19 07:36:32;;;;;;;11.82;8.95;;;;;;;10.36;75.50;96254.78;5034514;28;20500;-70
2021/05/19 07:39:00;;;;;;;11.30;8.32;;;;;;;10.38;74.72;96255.25;5033004;28;20050;-70
2021/05/19 07:41:28;;;;;;;12.02;9.15;;;;;;;10.53;75.43;96253.97;5032789;28;20069;-70
2021/05/19 07:43:54;;;;;;;12.82;8.10;;;;;;;10.51;73.64;96259.75;5033901;28;20041;-69
2021/05/19 07:46:20;;;;;;;12.45;8.13;;;;;;;10.62;74.41;96257.53;5033907;28;20038;-71
2021/05/19 07:48:46;;;;;;;10.98;7.93;;;;;;;10.50;74.58;96252.72;5034000;28;20052;-68
2021/05/19 07:51:14;;;;;;;11.75;8.50;;;;;;;10.69;75.30;96263.28;5032899;28;20545;-71
2021/05/19 07:53:41;;;;;;;15.63;9.57;;;;;;;11.00;74.61;96257.66;5033897;28;20523;-70
2021/05/19 07:56:13;;;;;;;9.30;7.82;;;;;;;11.21;73.75;96255.84;5030165;28;20056;-70
2021/05/19 07:58:41;;;;;;;13.50;8.75;;;;;;;11.27;72.68;96250.22;5030964;28;20045;-69
2021/05/19 08:01:12;;;;;;;12.75;8.73;;;;;;;11.29;72.00;96256.16;5029842;28;20053;-69
2021/05/19 08:03:38;;;;;;;10.32;7.93;;;;;;;11.32;73.42;96258.22;5030463;28;20056;-69
2021/05/19 08:06:05;;;;;;;8.45;7.32;;;;;;;11.40;72.09;96255.47;5030226;28;20455;-70
2021/05/19 08:08:31;;;;;;;12.88;8.20;;;;;;;11.32;72.71;96260.94;5030586;28;20052;-70
2021/05/19 08:10:58;;;;;;;13.00;8.13;;;;;;;11.53;72.19;96252.88;5030921;28;20046;-70
2021/05/19 08:13:25;;;;;;;13.38;8.40;;;;;;;11.99;70.38;96254.78;5029504;28;20643;-70
2021/05/19 08:15:51;;;;;;;12.32;8.13;;;;;;;12.53;69.21;96249.47;5030959;28;20057;-71
2021/05/19 08:18:19;;;;;;;9.07;7.47;;;;;;;12.82;68.08;96247.78;5029465;28;20056;-71
2021/05/19 08:20:45;;;;;;;15.27;7.32;;;;;;;13.02;67.82;96241.50;5030708;28;20055;-70
2021/05/19 08:23:11;;;;;;;10.07;7.47;;;;;;;12.74;64.26;96253.00;5029646;28;20144;-70
2021/05/19 08:25:37;;;;;;;10.27;7.40;;;;;;;12.35;66.17;96250.72;5030549;28;20057;-71
2021/05/19 08:28:04;;;;;;;13.32;7.10;;;;;;;12.20;65.24;96250.16;5029983;28;20059;-70
2021/05/19 08:30:31;;;;;;;10.88;7.82;;;;;;;12.22;65.97;96247.91;5029795;28;20060;-71
2021/05/19 08:32:57;;;;;;;14.63;7.30;;;;;;;11.94;64.20;96247.56;5029897;28;20133;-71
2021/05/19 08:35:23;;;;;;;10.35;7.72;;;;;;;11.68;65.49;96250.41;5027264;28;20049;-71
2021/05/19 08:37:49;;;;;;;9.55;7.35;;;;;;;12.15;65.03;96239.44;5030515;28;20092;-71
2021/05/19 08:40:16;;;;;;;8.68;7.28;;;;;;;13.01;66.50;96239.91;5028019;28;20132;-71
2021/05/19 08:42:42;;;;;;;10.85;7.22;;;;;;;13.50;64.61;96245.53;5030122;28;20558;-71
2021/05/19 08:45:10;;;;;;;10.80;7.25;;;;;;;13.77;64.60;96239.41;5028679;28;20132;-71
2021/05/19 08:47:37;;;;;;;8.57;6.72;;;;;;;13.48;60.29;96248.63;5029957;28;20049;-71
2021/05/19 08:50:05;;;;;;;8.73;6.07;;;;;;;13.86;59.77;96252.19;5028897;28;20401;-70
2021/05/19 08:52:33;;;;;;;7.60;5.88;;;;;;;13.34;58.21;96253.59;5030345;28;20550;-71
2021/05/19 08:55:00;;;;;;;11.63;6.38;;;;;;;13.62;58.49;96253.75;5030008;28;20083;-71
2021/05/19 08:57:26;;;;;;;9.50;6.38;;;;;;;13.76;59.49;96242.50;5029511;28;20045;-72
2021/05/19 08:59:51;;;;;;;8.02;6.40;;;;;;;13.47;60.09;96238.03;5035169;28;20107;-71
2021/05/19 09:02:18;;;;;;;8.82;7.05;;;;;;;13.28;60.72;96244.81;5049055;28;20460;-71
2021/05/19 09:04:45;;;;;;;10.68;6.35;;;;;;;14.00;59.29;96237.03;5049365;28;20045;-71
2021/05/19 09:07:18;;;;;;;8.80;6.70;;;;;;;14.80;59.78;96241.81;5048392;28;20044;-71
2021/05/19 09:09:44;;;;;;;8.38;6.15;;;;;;;15.37;56.87;96243.41;5040185;28;20508;-71
2021/05/19 09:12:11;;;;;;;7.72;5.57;;;;;;;14.98;53.84;96257.97;5030043;28;20049;-71
2021/05/19 09:14:39;;;;;;;8.98;6.20;;;;;;;14.58;54.46;96247.84;5029057;28;20049;-71
2021/05/19 09:17:19;;;;;;;8.65;6.20;;;;;;;14.77;56.83;96238.97;5029366;28;20045;-71
2021/05/19 09:19:47;;;;;;;10.88;5.45;;;;;;;15.08;53.95;96250.03;5029239;28;20049;-71
2021/05/19 09:22:17;;;;;;;9.05;5.00;;;;;;;15.13;53.22;96238.03;5029996;28;20172;-71
2021/05/19 09:24:43;;;;;;;6.95;4.00;;;;;;;15.20;52.08;96231.97;5029210;28;20053;-71
2021/05/19 09:27:10;;;;;;;6.00;4.13;;;;;;;15.11;52.87;96237.59;5029697;28;20061;-70
2021/05/19 09:29:38;;;;;;;7.18;4.03;;;;;;;15.29;56.88;96240.81;5029904;28;20051;-71
2021/05/19 09:32:06;;;;;;;9.52;4.80;;;;;;;15.53;56.45;96234.41;5029171;28;20462;-71
2021/05/19 09:34:35;;;;;;;6.60;5.03;;;;;;;15.79;55.48;96242.94;5028671;28;20503;-71
2021/05/19 09:37:22;;;;;;;7.88;5.00;;;;;;;15.31;51.25;96233.84;5028544;28;20096;-71
2021/05/19 09:39:50;;;;;;;8.43;5.32;;;;;;;15.20;53.75;96243.72;5028758;28;20527;-71
2021/05/19 09:42:17;;;;;;;8.55;5.10;;;;;;;15.08;53.38;96252.00;5027513;28;20037;-71
2021/05/19 09:44:45;;;;;;;9.88;5.40;;;;;;;15.07;53.57;96244.91;5029268;28;20045;-72
2021/05/19 09:47:11;;;;;;;6.90;4.90;;;;;;;15.08;54.31;96246.50;5028027;28;20599;-71
2021/05/19 09:49:37;;;;;;;6.65;5.03;;;;;;;15.10;54.32;96245.03;5029615;28;20152;-71
2021/05/19 09:52:11;;;;;;;8.02;4.88;;;;;;;14.93;54.68;96239.03;5028304;28;20069;-71
2021/05/19 09:54:39;;;;;;;6.97;4.63;;;;;;;14.63;55.03;96236.63;5028971;28;20579;-70
2021/05/19 09:57:07;;;;;;;8.63;5.32;;;;;;;14.31;55.54;96241.13;5028632;28;20049;-71
2021/05/19 09:59:34;;;;;;;6.38;4.85;;;;;;;14.51;57.42;96239.38;5028257;28;20408;-71
2021/05/19 10:02:01;;;;;;;9.05;4.90;;;;;;;14.68;55.46;96244.63;5029226;28;20037;-71
2021/05/19 10:04:29;;;;;;;8.02;4.72;;;;;;;14.88;54.85;96238.16;5028039;28;20049;-71
2021/05/19 10:06:56;;;;;;;7.35;5.22;;;;;;;15.12;56.12;96231.75;5029311;28;20528;-71
2021/05/19 10:09:24;;;;;;;6.55;4.45;;;;;;;15.32;54.13;96238.16;5027715;28;20049;-71
2021/05/19 10:11:51;;;;;;;6.53;3.90;;;;;;;15.48;51.99;96231.91;5029031;28;20060;-71
2021/05/19 10:14:21;;;;;;;6.40;4.75;;;;;;;15.42;54.90;96233.31;5027822;28;20069;-71
2021/05/19 10:16:51;;;;;;;5.45;4.40;;;;;;;15.29;55.37;96236.13;5028525;28;20075;-71
2021/05/19 10:19:25;;;;;;;5.90;4.97;;;;;;;15.21;54.05;96237.09;5027895;28;20054;-71
2021/05/19 10:21:52;;;;;;;6.50;4.95;;;;;;;15.37;53.52;96231.63;5028019;28;20060;-71
2021/05/19 10:24:21;;;;;;;5.80;4.32;;;;;;;15.52;52.63;96228.13;5028227;28;20041;-70
2021/05/19 10:27:07;;;;;;;8.50;4.63;;;;;;;15.60;53.66;96223.59;5027441;28;20751;-71
2021/05/19 10:29:54;;;;;;;5.47;3.50;;;;;;;15.71;49.21;96208.22;5028807;28;20045;-71
2021/05/19 10:32:30;;;;;;;6.93;4.07;;;;;;;15.90;48.73;96219.28;5027240;28;20694;-70
2021/05/19 10:34:58;;;;;;;9.43;4.20;;;;;;;15.71;50.22;96213.69;5027739;28;20092;-71
2021/05/19 10:37:46;;;;;;;7.38;4.40;;;;;;;15.96;51.60;96219.81;5027526;28;20059;-70
2021/05/19 10:40:29;;;;;;;6.72;4.20;;;;;;;16.04;48.99;96215.28;5026397;28;20077;-70
2021/05/19 10:43:01;;;;;;;7.38;3.65;;;;;;;16.11;52.02;96216.25;5030356;28;20045;-71
2021/05/19 10:45:28;;;;;;;4.97;3.17;;;;;;;16.06;49.85;96218.47;5030020;28;20045;-70
2021/05/19 10:47:54;;;;;;;5.40;3.63;;;;;;;15.39;47.95;96210.91;5030820;28;20038;-72
2021/05/19 10:50:28;;;;;;;2.35;1.30;;;;;;;15.23;48.35;96212.84;5030340;28;20082;-71
2021/05/19 10:58:49;;;;;;;2.25;0.98;;;;;;;14.79;46.30;96218.31;5029596;28;20416;-72
2021/05/19 11:01:17;;;;;;;4.18;1.13;;;;;;;14.64;44.47;96216.28;5030634;28;20046;-71
2021/05/19 11:04:14;;;;;;;1.42;0.95;;;;;;;14.12;42.85;96217.06;5031217;28;20041;-70
2021/05/19 11:07:05;;;;;;;2.20;1.15;;;;;;;13.88;47.68;96215.13;5030067;28;20125;-71
2021/05/19 11:09:32;;;;;;;4.28;1.70;;;;;;;13.60;47.55;96212.25;5030544;28;20503;-71
2021/05/19 11:12:46;;;;;;;3.30;1.83;;;;;;;13.55;47.82;96215.22;5029655;28;20110;-71
2021/05/19 11:16:03;;;;;;;3.10;2.33;;;;;;;13.57;52.41;96204.72;5019044;28;20037;-71
2021/05/19 11:18:56;;;;;;;5.28;2.90;;;;;;;13.47;50.15;96207.94;5030781;28;20049;-71
2021/05/19 11:21:23;;;;;;;4.72;2.80;;;;;;;13.50;51.83;96212.72;5028839;28;20150;-71
2021/05/19 11:24:00;;;;;;;4.90;3.70;;;;;;;13.67;54.67;96201.53;5030265;28;20041;-71
2021/05/19 11:26:26;;;;;;;8.38;3.33;;;;;;;13.88;53.00;96195.97;5010401;28;20052;-70
2021/05/19 11:28:56;;;;;;;5.63;3.35;;;;;;;13.97;52.76;96193.13;5010064;28;20045;-71
2021/05/19 11:31:25;;;;;;;5.25;3.40;;;;;;;14.17;51.80;96192.19;5010787;28;20042;-71
2021/05/19 11:33:54;;;;;;;4.43;3.33;;;;;;;14.53;53.24;96182.31;5009950;28;20048;-71
2021/05/19 11:36:30;;;;;;;5.30;3.78;;;;;;;14.97;53.31;96182.34;5010679;28;20050;-71
2021/05/19 11:38:57;;;;;;;5.03;3.80;;;;;;;15.17;50.46;96178.59;5009490;28;20042;-71
2021/05/19 11:41:23;;;;;;;5.35;3.85;;;;;;;15.43;54.44;96180.03;5009935;28;20401;-70
2021/05/19 11:43:49;;;;;;;5.43;3.88;;;;;;;15.68;52.05;96181.50;5010202;28;20045;-70
2021/05/19 11:46:15;;;;;;;5.18;3.70;;;;;;;15.85;51.83;96175.63;5009643;28;20527;-70
2021/05/19 11:48:48;;;;;;;4.63;3.28;;;;;;;16.00;50.64;96176.75;5010795;28;20038;-71